createdAt,value
2023-02-24T00:02:03.718Z,90.62
2023-02-24T00:04:41.159Z,90.43
2023-02-24T00:07:10.216Z,90.44
2023-02-24T00:09:38.923Z,90.45
2023-02-24T00:12:12.564Z,90.36
2023-02-24T00:14:44.033Z,90.40
2023-02-24T00:17:14.905Z,90.34
2023-02-24T00:19:42.409Z,90.43
2023-02-24T00:22:10.512Z,90.37
2023-02-24T00:24:37.788Z,90.35
2023-02-24T00:27:11.613Z,90.41
2023-02-24T00:29:43.113Z,90.34
2023-02-24T00:32:15.155Z,90.34
2023-02-24T00:34:42.894Z,90.17
2023-02-24T00:37:11.502Z,89.85
2023-02-24T00:39:40.598Z,89.65
2023-02-24T00:42:07.794Z,89.48
2023-02-24T00:44:38.930Z,89.33
2023-02-24T00:47:09.739Z,89.28
2023-02-24T00:49:41.452Z,88.98
2023-02-24T00:52:19.425Z,88.92
2023-02-24T00:54:48.993Z,88.73
2023-02-24T00:57:20.638Z,88.64
2023-02-24T00:59:50.721Z,88.33
2023-02-24T01:02:18.051Z,88.19
2023-02-24T01:04:45.413Z,88.32
2023-02-24T01:07:13.900Z,88.11
2023-02-24T01:09:41.222Z,88.05
2023-02-24T01:12:28.882Z,88.01
2023-02-24T01:14:56.576Z,87.95
2023-02-24T01:17:25.595Z,88.03
2023-02-24T01:20:00.960Z,88.01
2023-02-24T01:22:28.008Z,87.95
2023-02-24T01:24:54.951Z,87.97
2023-02-24T01:27:21.892Z,87.79
2023-02-24T01:29:49.282Z,87.63
2023-02-24T01:33:07.825Z,87.51
2023-02-24T01:35:35.334Z,87.54
2023-02-24T01:38:25.249Z,87.55
2023-02-24T01:44:53.948Z,87.45
2023-02-24T01:48:14.827Z,87.42
2023-02-24T01:50:51.172Z,87.51
2023-02-24T01:53:53.318Z,87.40
2023-02-24T01:56:46.664Z,87.33
2023-02-24T01:59:15.507Z,87.37
2023-02-24T02:01:47.763Z,87.45
2023-02-24T02:04:29.447Z,87.53
2023-02-24T02:06:57.856Z,87.56
2023-02-24T02:09:25.737Z,87.78
2023-02-24T02:11:52.985Z,87.99
2023-02-24T02:14:24.201Z,88.33
2023-02-24T02:17:20.809Z,88.51
2023-02-24T02:20:36.178Z,88.50
2023-02-24T02:23:11.944Z,88.61
2023-02-24T02:25:41.549Z,88.45
2023-02-24T02:28:36.113Z,88.09
2023-02-24T02:31:51.267Z,87.73
2023-02-24T02:34:32.201Z,87.54
2023-02-24T02:37:14.536Z,87.41
2023-02-24T02:40:22.735Z,87.21
2023-02-24T02:43:54.586Z,86.92
2023-02-24T02:47:14.914Z,86.76
2023-02-24T02:49:49.512Z,86.58
2023-02-24T02:52:27.104Z,86.62
2023-02-24T02:55:01.785Z,86.66
2023-02-24T02:57:34.138Z,86.66
2023-02-24T03:00:20.814Z,86.66
2023-02-24T03:02:58.162Z,86.78
2023-02-24T03:05:32.113Z,86.69
2023-02-24T03:08:04.583Z,86.65
2023-02-24T03:10:33.841Z,86.57
2023-02-24T03:13:16.407Z,86.67
2023-02-24T03:16:06.049Z,86.87
2023-02-24T03:18:45.141Z,87.10
2023-02-24T03:21:22.646Z,87.45
2023-02-24T03:23:51.941Z,87.86
2023-02-24T03:26:36.696Z,88.34
2023-02-24T03:29:23.531Z,88.87
2023-02-24T03:32:10.727Z,89.28
2023-02-24T03:34:50.192Z,89.79
2023-02-24T03:37:27.560Z,90.09
2023-02-24T03:40:01.032Z,90.43
2023-02-24T03:42:35.333Z,90.42
2023-02-24T03:45:47.284Z,90.65
2023-02-24T03:49:07.724Z,90.76
2023-02-24T03:55:32.807Z,90.87
2023-02-24T04:02:41.886Z,91.17
2023-02-24T04:05:32.308Z,91.26
2023-02-24T04:17:53.224Z,91.86
2023-02-24T04:20:27.485Z,92.13
2023-02-24T04:27:46.930Z,92.55
2023-02-24T04:30:17.522Z,92.81
2023-02-24T04:32:44.792Z,93.01
2023-02-24T04:35:15.029Z,93.10
2023-02-24T04:37:44.643Z,93.30
2023-02-24T04:40:21.354Z,93.78
2023-02-24T04:42:53.261Z,94.44
2023-02-24T04:45:24.842Z,94.87
2023-02-24T04:48:00.232Z,95.31
2023-02-24T04:50:32.853Z,95.22
2023-02-24T04:53:06.447Z,94.90
2023-02-24T04:55:39.583Z,95.01
2023-02-24T04:58:11.305Z,95.15
2023-02-24T05:00:41.049Z,95.07
2023-02-24T05:03:12.128Z,94.87
2023-02-24T05:05:42.301Z,94.92
2023-02-24T05:08:10.601Z,94.85
2023-02-24T05:10:41.083Z,94.87
2023-02-24T05:13:08.566Z,94.77
2023-02-24T05:15:40.504Z,94.67
2023-02-24T05:18:16.913Z,94.70
2023-02-24T05:21:06.108Z,94.84
2023-02-24T05:23:46.528Z,94.73
2023-02-24T05:26:17.275Z,94.73
2023-02-24T05:28:51.675Z,94.92
2023-02-24T05:31:23.578Z,95.43
2023-02-24T05:33:57.236Z,95.61
2023-02-24T05:36:28.889Z,95.83
2023-02-24T05:39:12.138Z,96.21
2023-02-24T05:41:44.449Z,96.40
2023-02-24T05:44:22.241Z,96.57
2023-02-24T05:46:59.985Z,96.78
2023-02-24T05:49:52.704Z,96.95
2023-02-24T05:52:20.212Z,97.04
2023-02-24T05:54:47.641Z,97.18
2023-02-24T05:57:31.271Z,97.41
2023-02-24T06:00:09.172Z,97.66
2023-02-24T06:02:42.461Z,97.70
2023-02-24T06:05:24.738Z,97.74
2023-02-24T06:08:05.545Z,98.08
2023-02-24T06:10:33.884Z,98.23
2023-02-24T06:13:02.317Z,98.46
2023-02-24T06:15:31.609Z,98.56
2023-02-24T06:18:00.423Z,98.77
2023-02-24T06:20:32.377Z,98.82
2023-02-24T06:23:01.633Z,98.88
2023-02-24T06:25:29.375Z,99.04
2023-02-24T06:28:02.950Z,99.28
2023-02-24T06:30:32.204Z,99.51
2023-02-24T06:32:59.454Z,99.56
2023-02-24T06:35:32.577Z,99.72
2023-02-24T06:38:05.502Z,100.00
2023-02-24T06:40:48.023Z,100.00
2023-02-24T06:43:23.481Z,100.00
2023-02-24T06:46:06.966Z,100.00
2023-02-24T06:48:36.166Z,100.00
2023-02-24T06:51:52.574Z,100.00
2023-02-24T06:54:35.563Z,100.00
2023-02-24T06:57:43.562Z,100.00
2023-02-24T07:08:52.111Z,100.00
2023-02-24T07:11:55.164Z,100.00
2023-02-24T07:15:05.696Z,100.00
2023-02-24T07:17:55.925Z,100.00
2023-02-24T07:30:34.542Z,100.00
2023-02-24T07:34:31.250Z,100.00
2023-02-24T07:37:47.217Z,100.00
2023-02-24T07:40:26.299Z,100.00
2023-02-24T07:43:40.937Z,100.00
2023-02-24T07:47:14.521Z,100.00
2023-02-24T07:53:11.800Z,100.00
2023-02-24T07:56:27.283Z,100.00
2023-02-24T07:59:16.291Z,100.00
2023-02-24T08:01:55.174Z,100.00
2023-02-24T08:04:35.000Z,100.00
2023-02-24T08:07:16.764Z,100.00
2023-02-24T08:10:14.831Z,100.00
2023-02-24T08:12:45.907Z,100.00
2023-02-24T08:15:36.311Z,100.00
2023-02-24T08:18:09.720Z,100.00
2023-02-24T08:21:17.012Z,100.00
2023-02-24T08:24:02.531Z,100.00
2023-02-24T08:26:31.122Z,100.00
2023-02-24T08:29:10.297Z,100.00
2023-02-24T08:31:38.515Z,100.00
2023-02-24T08:34:06.670Z,100.00
2023-02-24T08:36:47.197Z,100.00
2023-02-24T08:39:14.586Z,100.00
2023-02-24T08:41:46.455Z,100.00
2023-02-24T08:44:20.760Z,100.00
2023-02-24T08:46:49.561Z,100.00
2023-02-24T08:49:18.858Z,100.00
2023-02-24T08:51:48.302Z,100.00
2023-02-24T08:54:18.921Z,100.00
2023-02-24T08:56:54.488Z,100.00
2023-02-24T08:59:47.949Z,100.00
2023-02-24T09:02:23.616Z,100.00
2023-02-24T09:04:54.884Z,100.00
2023-02-24T09:07:26.061Z,100.00
2023-02-24T09:09:58.118Z,100.00
2023-02-24T09:12:28.475Z,100.00
2023-02-24T09:15:00.529Z,100.00
2023-02-24T09:17:49.529Z,100.00
2023-02-24T09:20:25.052Z,100.00
2023-02-24T09:22:57.325Z,100.00
2023-02-24T09:25:39.737Z,99.91
2023-02-24T09:28:16.543Z,99.85
2023-02-24T09:30:59.333Z,98.43
2023-02-24T09:33:28.317Z,96.47
2023-02-24T09:36:09.180Z,95.50
2023-02-24T09:39:00.839Z,94.72
2023-02-24T09:41:53.030Z,93.41
2023-02-24T09:44:34.714Z,92.19
2023-02-24T09:47:39.070Z,90.80
2023-02-24T09:50:40.298Z,90.53
2023-02-24T09:53:16.614Z,90.48
2023-02-24T09:56:21.393Z,89.59
2023-02-24T09:58:58.069Z,89.60
2023-02-24T10:01:42.326Z,89.86
2023-02-24T10:04:21.738Z,89.91
2023-02-24T10:07:06.100Z,90.07
2023-02-24T10:09:35.465Z,89.93
2023-02-24T10:12:16.647Z,89.37
2023-02-24T10:15:18.780Z,89.12
2023-02-24T10:18:27.783Z,89.24
2023-02-24T10:21:07.260Z,88.96
2023-02-24T10:24:19.121Z,88.48
2023-02-24T10:27:08.294Z,87.96
2023-02-24T10:29:50.265Z,87.03
2023-02-24T10:32:36.471Z,87.22
2023-02-24T10:35:25.382Z,87.32
2023-02-24T10:37:53.485Z,87.01
2023-02-24T10:40:44.232Z,86.75
2023-02-24T10:43:19.360Z,86.43
2023-02-24T10:45:47.471Z,86.57
2023-02-24T10:48:32.278Z,86.67
2023-02-24T10:51:19.290Z,86.71
2023-02-24T10:54:14.111Z,85.82
2023-02-24T10:56:44.163Z,85.59
2023-02-24T10:59:39.334Z,85.37
2023-02-24T11:02:28.860Z,85.36
2023-02-24T11:04:58.778Z,84.82
2023-02-24T11:07:43.393Z,83.62
2023-02-24T11:10:25.504Z,83.15
2023-02-24T11:13:14.752Z,83.09
2023-02-24T11:16:08.587Z,82.95
2023-02-24T11:18:36.099Z,82.38
2023-02-24T11:21:09.412Z,82.16
2023-02-24T11:24:14.857Z,81.83
2023-02-24T11:26:45.915Z,80.08
2023-02-24T11:29:14.695Z,80.61
2023-02-24T11:31:56.946Z,80.42
2023-02-24T11:34:37.474Z,79.89
2023-02-24T11:37:26.419Z,80.19
2023-02-24T11:40:06.908Z,79.18
2023-02-24T11:42:46.074Z,79.32
2023-02-24T11:45:26.918Z,80.90
2023-02-24T11:48:00.100Z,80.67
2023-02-24T11:50:39.091Z,81.04
2023-02-24T11:53:25.689Z,80.89
2023-02-24T11:56:34.558Z,80.45
2023-02-24T11:59:04.546Z,80.38
2023-02-24T12:01:44.477Z,80.11
2023-02-24T12:04:30.637Z,78.41
2023-02-24T12:07:06.941Z,77.37
2023-02-24T12:09:44.190Z,77.34
2023-02-24T12:12:27.519Z,76.62
2023-02-24T12:15:03.065Z,77.11
2023-02-24T12:17:35.868Z,77.48
2023-02-24T12:20:21.167Z,77.04
2023-02-24T12:22:55.020Z,77.15
2023-02-24T12:25:31.710Z,75.74
2023-02-24T12:28:46.382Z,74.66
2023-02-24T12:31:41.422Z,72.85
2023-02-24T12:34:53.622Z,73.31
2023-02-24T12:37:38.940Z,72.23
2023-02-24T12:40:36.127Z,71.28
2023-02-24T12:43:17.805Z,69.75
2023-02-24T12:46:22.450Z,68.93
2023-02-24T12:49:17.270Z,67.93
2023-02-24T12:51:57.623Z,68.12
2023-02-24T12:54:38.158Z,68.51
2023-02-24T12:57:27.090Z,69.22
2023-02-24T13:00:06.070Z,69.30
2023-02-24T13:02:54.710Z,69.80
2023-02-24T13:05:31.132Z,69.67
2023-02-24T13:08:34.902Z,70.28
2023-02-24T13:11:35.652Z,70.14
2023-02-24T13:14:27.960Z,71.71
2023-02-24T13:17:10.562Z,72.23
2023-02-24T13:19:40.285Z,72.83
2023-02-24T13:22:20.885Z,72.91
2023-02-24T13:25:17.752Z,73.20
2023-02-24T13:27:55.740Z,72.77
2023-02-24T13:30:28.500Z,73.37
2023-02-24T13:33:24.470Z,73.57
2023-02-24T13:36:05.945Z,73.00
2023-02-24T13:38:38.287Z,73.05
2023-02-24T13:41:19.858Z,73.45
2023-02-24T13:44:22.404Z,73.67
2023-02-24T13:47:11.473Z,73.87
2023-02-24T13:49:38.441Z,73.59
2023-02-24T13:52:43.370Z,73.73
2023-02-24T13:55:19.597Z,73.12
2023-02-24T13:58:04.883Z,73.44
2023-02-24T14:01:11.170Z,73.22
2023-02-24T14:03:41.502Z,73.45
2023-02-24T14:06:25.635Z,73.25
2023-02-24T14:09:14.402Z,73.44
2023-02-24T14:11:41.842Z,73.40
2023-02-24T14:14:17.708Z,72.56
2023-02-24T14:16:47.635Z,73.13
2023-02-24T14:19:16.711Z,72.97
2023-02-24T14:21:50.931Z,72.87
2023-02-24T14:24:18.673Z,72.32
2023-02-24T14:26:49.624Z,72.03
2023-02-24T14:29:43.645Z,71.51
2023-02-24T14:32:21.286Z,71.97
2023-02-24T14:34:51.070Z,72.23
2023-02-24T14:37:23.584Z,72.40
2023-02-24T14:39:54.158Z,72.63
2023-02-24T14:42:21.806Z,72.77
2023-02-24T14:44:58.286Z,72.64
2023-02-24T14:47:28.124Z,73.37
2023-02-24T14:49:59.046Z,73.63
2023-02-24T14:52:26.124Z,73.80
2023-02-24T14:55:00.329Z,74.23
2023-02-24T14:57:40.352Z,74.03
2023-02-24T15:00:23.478Z,74.12
2023-02-24T15:03:02.777Z,74.26
2023-02-24T15:05:30.103Z,74.43
2023-02-24T15:07:59.909Z,74.96
2023-02-24T15:10:30.541Z,74.55
2023-02-24T15:13:12.352Z,74.59
2023-02-24T15:15:39.577Z,74.80
2023-02-24T15:18:23.735Z,74.57
2023-02-24T15:21:00.640Z,74.72
2023-02-24T15:23:36.252Z,74.93
2023-02-24T15:26:08.021Z,75.06
2023-02-24T15:28:36.658Z,75.09
2023-02-24T15:31:05.915Z,75.08
2023-02-24T15:33:39.478Z,75.15
2023-02-24T15:36:17.177Z,75.40
2023-02-24T15:38:45.395Z,75.51
2023-02-24T15:41:13.702Z,75.42
2023-02-24T15:43:46.836Z,75.77
2023-02-24T15:46:20.335Z,75.94
2023-02-24T15:48:50.695Z,75.93
2023-02-24T15:51:41.375Z,75.78
2023-02-24T15:54:14.341Z,75.91
2023-02-24T15:56:42.869Z,75.96
2023-02-24T15:59:19.279Z,75.97
2023-02-24T16:01:46.325Z,75.87
2023-02-24T16:04:13.484Z,75.79
2023-02-24T16:06:43.774Z,75.84
2023-02-24T16:09:15.602Z,76.10
2023-02-24T16:11:46.154Z,76.22
2023-02-24T16:14:16.268Z,76.24
2023-02-24T16:16:44.619Z,76.45
2023-02-24T16:19:15.417Z,76.43
2023-02-24T16:21:43.589Z,76.60
2023-02-24T16:24:10.553Z,76.65
2023-02-24T16:26:39.648Z,76.61
2023-02-24T16:29:11.613Z,76.75
2023-02-24T16:31:39.866Z,76.72
2023-02-24T16:34:14.107Z,77.07
2023-02-24T16:36:42.241Z,77.62
2023-02-24T16:39:11.716Z,78.26
2023-02-24T16:41:38.631Z,78.67
2023-02-24T16:44:05.686Z,79.16
2023-02-24T16:46:39.313Z,79.54
2023-02-24T16:49:09.581Z,79.68
2023-02-24T16:51:38.503Z,80.01
2023-02-24T16:54:05.537Z,80.58
2023-02-24T16:56:32.536Z,81.35
2023-02-24T16:59:00.334Z,82.11
2023-02-24T17:01:27.426Z,82.57
2023-02-24T17:03:54.429Z,83.03
2023-02-24T17:06:23.878Z,83.45
2023-02-24T17:08:51.484Z,83.70
2023-02-24T17:11:21.257Z,83.92
2023-02-24T17:13:48.366Z,84.27
2023-02-24T17:16:15.434Z,84.46
2023-02-24T17:18:42.508Z,84.90
2023-02-24T17:21:13.193Z,85.16
2023-02-24T17:23:41.896Z,85.31
2023-02-24T17:26:13.094Z,85.50
2023-02-24T17:28:40.356Z,85.67
2023-02-24T17:31:07.595Z,85.73
2023-02-24T17:33:34.651Z,86.05
2023-02-24T17:36:01.718Z,86.03
2023-02-24T17:38:28.983Z,86.07
2023-02-24T17:40:56.933Z,86.04
2023-02-24T17:43:24.115Z,85.91
2023-02-24T17:45:52.432Z,86.23
2023-02-24T17:48:20.283Z,86.30
2023-02-24T17:50:48.056Z,86.57
2023-02-24T17:53:16.012Z,86.71
2023-02-24T17:56:00.965Z,86.60
2023-02-24T17:58:29.328Z,86.81
2023-02-24T18:00:56.464Z,86.93
2023-02-24T18:03:24.035Z,87.09
2023-02-24T18:06:17.661Z,87.04
2023-02-24T18:08:44.597Z,87.63
2023-02-24T18:11:16.612Z,88.35
2023-02-24T18:13:43.822Z,88.39
2023-02-24T18:16:14.028Z,88.70
2023-02-24T18:18:41.825Z,88.80
2023-02-24T18:21:08.904Z,89.34
2023-02-24T18:23:39.506Z,89.58
2023-02-24T18:26:08.680Z,89.39
2023-02-24T18:28:35.901Z,89.52
2023-02-24T18:31:14.541Z,89.56
2023-02-24T18:33:41.879Z,89.51
2023-02-24T18:36:10.067Z,89.48
2023-02-24T18:38:37.643Z,89.41
2023-02-24T18:41:07.773Z,89.83
2023-02-24T18:43:35.936Z,90.12
2023-02-24T18:46:06.019Z,90.21
2023-02-24T18:48:34.203Z,90.35
2023-02-24T18:51:01.638Z,90.74
2023-02-24T18:53:31.154Z,90.73
2023-02-24T18:56:06.371Z,90.83
2023-02-24T18:58:34.388Z,91.30
2023-02-24T19:01:01.431Z,91.62
2023-02-24T19:03:28.429Z,91.64
2023-02-24T19:05:55.457Z,91.77
2023-02-24T19:08:22.539Z,91.73
2023-02-24T19:10:49.523Z,91.83
2023-02-24T19:13:16.456Z,91.81
2023-02-24T19:15:44.119Z,91.83
2023-02-24T19:18:11.290Z,91.97
2023-02-24T19:20:42.193Z,92.07
2023-02-24T19:23:09.809Z,91.94
2023-02-24T19:25:37.020Z,91.85
2023-02-24T19:28:04.102Z,91.70
2023-02-24T19:30:31.245Z,91.62
2023-02-24T19:32:58.350Z,91.39
2023-02-24T19:35:25.750Z,91.31
2023-02-24T19:37:52.753Z,91.09
2023-02-24T19:40:20.367Z,90.88
2023-02-24T19:42:48.779Z,90.77
2023-02-24T19:45:16.439Z,90.44
2023-02-24T19:47:46.281Z,90.34
2023-02-24T19:50:14.451Z,90.12
2023-02-24T19:52:42.327Z,89.88
2023-02-24T19:55:14.072Z,89.86
2023-02-24T19:57:41.081Z,89.94
2023-02-24T20:00:10.877Z,89.84
2023-02-24T20:02:40.810Z,89.62
2023-02-24T20:05:09.836Z,89.64
2023-02-24T20:07:37.165Z,89.77
2023-02-24T20:10:04.801Z,89.78
2023-02-24T20:12:33.395Z,89.70
2023-02-24T20:15:00.800Z,89.83
2023-02-24T20:17:27.818Z,89.84
2023-02-24T20:19:56.179Z,89.94
2023-02-24T20:22:23.761Z,89.98
2023-02-24T20:24:50.970Z,90.13
2023-02-24T20:27:18.707Z,90.16
2023-02-24T20:29:46.686Z,90.30
2023-02-24T20:32:13.824Z,90.27
2023-02-24T20:34:41.352Z,90.43
2023-02-24T20:37:08.381Z,90.34
2023-02-24T20:39:37.980Z,90.36
2023-02-24T20:42:05.445Z,90.33
2023-02-24T20:44:32.593Z,90.34
2023-02-24T20:46:59.613Z,90.28
2023-02-24T20:49:26.757Z,90.03
2023-02-24T20:51:53.649Z,90.01
2023-02-24T20:54:23.317Z,89.89
2023-02-24T20:56:50.585Z,89.70
2023-02-24T20:59:21.340Z,89.64
2023-02-24T21:01:49.390Z,89.57
2023-02-24T21:04:19.440Z,89.44
2023-02-24T21:06:47.478Z,89.36
2023-02-24T21:09:15.369Z,89.37
2023-02-24T21:11:42.685Z,89.19
2023-02-24T21:14:14.908Z,89.00
2023-02-24T21:16:42.022Z,88.82
2023-02-24T21:19:09.089Z,88.81
2023-02-24T21:21:36.125Z,88.90
2023-02-24T21:24:04.539Z,88.72
2023-02-24T21:26:31.496Z,88.66
2023-02-24T21:28:58.743Z,88.48
2023-02-24T21:31:26.829Z,88.33
2023-02-24T21:33:55.043Z,88.14
2023-02-24T21:36:27.108Z,87.95
2023-02-24T21:38:54.933Z,87.97
2023-02-24T21:41:23.046Z,87.68
2023-02-24T21:43:55.102Z,87.55
2023-02-24T21:46:27.451Z,87.38
2023-02-24T21:48:58.756Z,87.16
2023-02-24T21:51:27.415Z,86.99
2023-02-24T21:53:56.182Z,87.07
2023-02-24T21:56:26.260Z,86.93
2023-02-24T21:58:59.603Z,87.20
2023-02-24T22:01:32.604Z,87.43
2023-02-24T22:04:03.551Z,87.21
2023-02-24T22:06:33.120Z,86.50
2023-02-24T22:09:01.976Z,87.23
2023-02-24T22:11:31.159Z,88.21
2023-02-24T22:13:58.310Z,89.24
2023-02-24T22:16:25.820Z,90.21
2023-02-24T22:18:54.630Z,91.28
2023-02-24T22:21:24.497Z,91.66
2023-02-24T22:23:53.640Z,91.80
2023-02-24T22:26:25.087Z,92.10
2023-02-24T22:28:53.540Z,92.38
2023-02-24T22:31:24.182Z,92.52
2023-02-24T22:33:51.292Z,92.73
2023-02-24T22:36:21.806Z,93.25
2023-02-24T22:38:49.136Z,93.64
2023-02-24T22:41:19.329Z,94.10
2023-02-24T22:43:46.828Z,94.63
2023-02-24T22:46:16.973Z,95.12
2023-02-24T22:48:44.134Z,95.45
2023-02-24T22:51:13.078Z,95.77
2023-02-24T22:53:45.982Z,95.92
2023-02-24T22:56:15.234Z,96.10
2023-02-24T22:58:42.837Z,96.37
2023-02-24T23:01:12.137Z,96.51
2023-02-24T23:03:40.095Z,96.91
2023-02-24T23:06:10.008Z,97.05
2023-02-24T23:08:38.535Z,97.46
2023-02-24T23:11:08.290Z,97.90
2023-02-24T23:13:35.282Z,98.11
2023-02-24T23:16:03.722Z,98.24
2023-02-24T23:18:32.491Z,98.49
2023-02-24T23:21:02.709Z,98.77
2023-02-24T23:23:31.188Z,98.94
2023-02-24T23:25:59.070Z,99.22
2023-02-24T23:28:27.572Z,99.44
2023-02-24T23:30:54.983Z,99.70
2023-02-24T23:33:22.706Z,99.79
2023-02-24T23:35:49.882Z,99.81
2023-02-24T23:38:17.964Z,99.91
2023-02-24T23:40:50.826Z,100.00
2023-02-24T23:43:18.223Z,100.00
2023-02-24T23:45:45.369Z,100.00
2023-02-24T23:48:13.814Z,100.00
2023-02-24T23:50:42.276Z,100.00
2023-02-24T23:53:09.763Z,100.00
2023-02-24T23:55:40.231Z,100.00
2023-02-24T23:58:07.674Z,100.00
